Time;durP1;ratioP1;P1;durP2;ratioP2;P2;SDS_P1;SDS_P2;PMS_P1;PMS_P2;Temp;Humidity;BMP_temperature;BMP_pressure;BME280_temperature;BME280_humidity;BME280_pressure;Samples;Min_cycle;Max_cycle;Signal;HPM_P1;HPM_P2
2023/07/10 00:03:13;;;;;;;;;;;20.70;99.90;;;;;;8346308;28;19960;-72
2023/07/10 00:07:14;;;;;;;;;;;20.70;99.90;;;;;;8364138;28;19950;-72
2023/07/10 00:11:23;;;;;;;;;;;20.70;99.90;;;;;;8368348;28;19958;-72
2023/07/10 00:15:25;;;;;;;;;;;20.70;99.90;;;;;;8369938;28;19978;-72
2023/07/10 00:19:27;;;;;;;;;;;20.70;99.90;;;;;;8362399;28;19925;-72
2023/07/10 00:23:29;;;;;;;;;;;20.70;99.90;;;;;;8373067;28;19932;-72
2023/07/10 00:27:30;;;;;;;;;;;20.70;99.90;;;;;;8365817;28;20323;-72
2023/07/10 00:31:32;;;;;;;;;;;20.70;99.90;;;;;;8363929;28;19940;-72
2023/07/10 00:35:34;;;;;;;;;;;20.70;99.90;;;;;;8376417;28;19933;-72
2023/07/10 00:39:37;;;;;;;;;;;20.70;99.90;;;;;;8362096;28;19929;-72
2023/07/10 00:43:44;;;;;;;;;;;20.70;99.90;;;;;;8387848;28;19924;-72
2023/07/10 00:47:52;;;;;;;;;;;20.60;99.90;;;;;;8360860;28;20372;-72
2023/07/10 00:52:03;;;;;;;;;;;20.60;99.90;;;;;;8369789;28;20425;-72
2023/07/10 00:56:05;;;;;;;;;;;20.60;99.90;;;;;;8344675;28;20649;-72
2023/07/10 01:00:18;;;;;;;;;;;20.50;99.90;;;;;;8371419;28;20278;-72
2023/07/10 01:04:19;;;;;;;;;;;20.60;99.90;;;;;;8374586;28;19932;-72
2023/07/10 01:08:23;;;;;;;;;;;20.50;99.90;;;;;;8366875;28;19978;-72
2023/07/10 01:12:26;;;;;;;;;;;20.50;99.90;;;;;;8364811;28;21344;-72
2023/07/10 01:16:30;;;;;;;;;;;20.50;99.90;;;;;;8378749;28;19925;-72
2023/07/10 01:20:34;;;;;;;;;;;20.50;99.90;;;;;;8367180;28;19974;-72
2023/07/10 01:24:36;;;;;;;;;;;20.40;99.90;;;;;;8366207;28;20323;-72
2023/07/10 01:38:46;;;;;;;;;;;20.30;99.90;;;;;;8352355;28;19919;-72
2023/07/10 02:07:58;;;;;;;;;;;19.80;99.90;;;;;;8354511;28;20004;-72
2023/07/10 02:12:00;;;;;;;;;;;19.80;99.90;;;;;;8362084;28;20297;-72
2023/07/10 02:16:03;;;;;;;;;;;19.70;99.90;;;;;;8363538;28;19928;-72
2023/07/10 02:20:05;;;;;;;;;;;19.70;99.90;;;;;;8371977;28;20314;-72
2023/07/10 02:24:09;;;;;;;;;;;19.70;99.90;;;;;;8384073;28;19935;-72
2023/07/10 02:28:11;;;;;;;;;;;19.70;99.90;;;;;;8376132;28;19924;-72
2023/07/10 02:32:12;;;;;;;;;;;19.60;99.90;;;;;;8370192;28;19935;-72
2023/07/10 02:36:14;;;;;;;;;;;19.60;99.90;;;;;;8381565;28;19925;-72
2023/07/10 02:40:16;;;;;;;;;;;19.60;99.90;;;;;;8362515;28;19928;-72
2023/07/10 02:44:17;;;;;;;;;;;19.60;99.90;;;;;;8380645;28;19929;-72
2023/07/10 02:48:19;;;;;;;;;;;19.50;99.90;;;;;;8367086;28;19924;-72
2023/07/10 02:52:21;;;;;;;;;;;19.50;99.90;;;;;;8381883;28;20337;-72
2023/07/10 02:56:23;;;;;;;;;;;19.40;99.90;;;;;;8374827;28;20843;-72
2023/07/10 03:00:24;;;;;;;;;;;19.40;99.90;;;;;;8364874;28;19979;-72
2023/07/10 03:04:26;;;;;;;;;;;19.40;99.90;;;;;;8373804;28;19935;-72
2023/07/10 03:08:28;;;;;;;;;;;19.40;99.90;;;;;;8330361;28;20368;-72
2023/07/10 03:12:30;;;;;;;;;;;19.20;99.90;;;;;;8346789;28;19930;-73
2023/07/10 03:16:31;;;;;;;;;;;19.10;99.90;;;;;;8364211;28;19940;-72
2023/07/10 03:20:33;;;;;;;;;;;19.10;99.90;;;;;;8354918;28;19930;-72
2023/07/10 03:24:35;;;;;;;;;;;19.00;99.90;;;;;;8355354;28;19954;-72
2023/07/10 03:28:37;;;;;;;;;;;18.90;99.90;;;;;;8372999;28;19933;-72
2023/07/10 03:32:38;;;;;;;;;;;18.90;99.90;;;;;;8355992;28;20363;-72
2023/07/10 03:36:40;;;;;;;;;;;18.80;99.90;;;;;;8353111;28;19937;-72
2023/07/10 03:40:50;;;;;;;;;;;18.70;99.90;;;;;;8363222;28;20429;-72
2023/07/10 03:44:51;;;;;;;;;;;18.70;99.90;;;;;;8336125;28;20054;-72
2023/07/10 03:48:53;;;;;;;;;;;18.70;99.90;;;;;;8361675;28;19936;-72
2023/07/10 03:52:55;;;;;;;;;;;18.70;99.90;;;;;;8355695;28;19925;-72
2023/07/10 04:07:04;;;;;;;;;;;18.70;99.90;;;;;;8358895;28;19932;-72
2023/07/10 04:11:07;;;;;;;;;;;18.60;99.90;;;;;;8389827;28;19933;-72
2023/07/10 04:15:09;;;;;;;;;;;18.60;99.90;;;;;;8363768;28;20270;-72
2023/07/10 04:19:11;;;;;;;;;;;18.60;99.90;;;;;;8359279;28;19929;-72
2023/07/10 04:23:12;;;;;;;;;;;18.60;99.90;;;;;;8390173;28;19925;-72
2023/07/10 04:27:14;;;;;;;;;;;18.60;99.90;;;;;;8346017;28;20371;-72
2023/07/10 04:31:17;;;;;;;;;;;18.60;99.90;;;;;;8346980;28;20371;-75
2023/07/10 04:35:18;;;;;;;;;;;18.60;99.90;;;;;;8359665;28;21246;-75
2023/07/10 04:39:20;;;;;;;;;;;18.70;99.90;;;;;;8354757;28;19929;-74
2023/07/10 04:43:23;;;;;;;;;;;18.70;99.90;;;;;;8362690;28;19987;-75
2023/07/10 04:47:25;;;;;;;;;;;18.80;99.90;;;;;;8336306;28;19975;-75
2023/07/10 04:51:26;;;;;;;;;;;18.80;99.90;;;;;;8370761;28;20285;-75
2023/07/10 04:55:28;;;;;;;;;;;18.90;99.90;;;;;;8360968;28;19931;-75
2023/07/10 04:59:30;;;;;;;;;;;18.90;99.90;;;;;;8357055;28;19982;-75
2023/07/10 05:03:32;;;;;;;;;;;18.90;99.90;;;;;;8369124;28;19928;-75
2023/07/10 05:07:33;;;;;;;;;;;19.00;99.90;;;;;;8371145;28;19924;-75
2023/07/10 05:11:35;;;;;;;;;;;19.00;99.90;;;;;;8372085;28;19970;-75
2023/07/10 05:15:37;;;;;;;;;;;19.10;99.90;;;;;;8367197;28;19925;-75
2023/07/10 05:19:38;;;;;;;;;;;19.20;99.90;;;;;;8349245;28;19932;-75
2023/07/10 05:23:40;;;;;;;;;;;19.20;99.90;;;;;;8344542;28;19932;-75
2023/07/10 05:27:42;;;;;;;;;;;19.30;99.90;;;;;;8365849;28;19933;-75
2023/07/10 05:31:44;;;;;;;;;;;19.30;99.90;;;;;;8350159;28;19937;-75
2023/07/10 05:35:53;;;;;;;;;;;19.40;99.90;;;;;;8370039;28;20261;-76
2023/07/10 05:39:54;;;;;;;;;;;19.40;99.90;;;;;;8358685;28;20100;-75
2023/07/10 05:43:56;;;;;;;;;;;19.50;99.90;;;;;;8356031;28;20372;-75
2023/07/10 05:47:57;;;;;;;;;;;19.60;99.90;;;;;;8350532;28;19970;-75
2023/07/10 05:51:59;;;;;;;;;;;19.60;99.90;;;;;;8363339;28;19925;-75
2023/07/10 05:56:01;;;;;;;;;;;19.70;99.90;;;;;;8345657;28;19928;-75
2023/07/10 06:00:04;;;;;;;;;;;19.70;99.90;;;;;;8369113;28;19925;-75
2023/07/10 06:04:06;;;;;;;;;;;19.70;99.90;;;;;;8351224;28;20438;-76
2023/07/10 06:08:08;;;;;;;;;;;19.80;99.90;;;;;;8359646;28;19925;-75
2023/07/10 06:12:10;;;;;;;;;;;19.90;99.90;;;;;;8384441;28;20375;-75
2023/07/10 06:16:14;;;;;;;;;;;19.90;99.90;;;;;;8396203;28;19925;-75
2023/07/10 06:20:16;;;;;;;;;;;20.00;99.90;;;;;;8364836;28;19978;-76
2023/07/10 06:24:17;;;;;;;;;;;20.10;99.90;;;;;;8363179;28;19929;-74
2023/07/10 06:28:19;;;;;;;;;;;20.10;99.90;;;;;;8369082;28;19926;-76
2023/07/10 06:32:21;;;;;;;;;;;20.10;99.90;;;;;;8373161;28;19936;-76
2023/07/10 06:36:23;;;;;;;;;;;20.20;99.90;;;;;;8372427;28;20290;-75
2023/07/10 06:40:24;;;;;;;;;;;20.20;99.90;;;;;;8353827;28;19928;-76
2023/07/10 06:44:26;;;;;;;;;;;20.30;99.90;;;;;;8366550;28;20299;-75
2023/07/10 06:48:28;;;;;;;;;;;20.30;99.90;;;;;;8369829;28;20264;-76
2023/07/10 06:52:29;;;;;;;;;;;20.40;99.90;;;;;;8390330;28;19947;-75
2023/07/10 06:56:31;;;;;;;;;;;20.40;99.90;;;;;;8396116;28;20291;-76
2023/07/10 07:00:33;;;;;;;;;;;20.50;99.90;;;;;;8358082;28;19924;-75
2023/07/10 07:04:34;;;;;;;;;;;20.60;99.90;;;;;;8370608;28;19924;-75
2023/07/10 07:08:36;;;;;;;;;;;20.60;99.90;;;;;;8372821;28;19928;-76
2023/07/10 07:12:38;;;;;;;;;;;20.60;99.90;;;;;;8356589;28;20292;-75
2023/07/10 07:16:40;;;;;;;;;;;20.70;99.90;;;;;;8369093;28;19925;-75
2023/07/10 07:20:41;;;;;;;;;;;20.70;99.90;;;;;;8375112;28;19925;-74
2023/07/10 07:24:43;;;;;;;;;;;20.80;99.90;;;;;;8357716;28;19925;-74
2023/07/10 07:28:45;;;;;;;;;;;20.70;99.90;;;;;;8376879;28;20449;-72
2023/07/10 07:32:47;;;;;;;;;;;20.70;99.90;;;;;;8382002;28;19931;-75
2023/07/10 07:36:50;;;;;;;;;;;20.70;99.90;;;;;;8383420;28;19924;-74
2023/07/10 07:40:52;;;;;;;;;;;20.70;99.90;;;;;;8360864;28;19979;-74
2023/07/10 07:44:54;;;;;;;;;;;20.80;99.90;;;;;;8368584;28;19939;-75
2023/07/10 07:48:56;;;;;;;;;;;20.90;99.90;;;;;;8373410;28;19924;-74
2023/07/10 07:52:57;;;;;;;;;;;21.00;99.90;;;;;;8366871;28;19932;-75
2023/07/10 07:56:59;;;;;;;;;;;21.00;99.90;;;;;;8360731;28;19925;-75
2023/07/10 08:01:01;;;;;;;;;;;21.00;99.90;;;;;;8369546;28;19932;-74
2023/07/10 08:05:03;;;;;;;;;;;21.10;99.90;;;;;;8360246;28;19933;-75
2023/07/10 08:09:09;;;;;;;;;;;21.10;99.90;;;;;;8308164;28;19965;-74
2023/07/10 08:13:14;;;;;;;;;;;21.10;99.90;;;;;;8335737;28;19929;-75
2023/07/10 08:17:15;;;;;;;;;;;21.20;99.90;;;;;;8334974;28;20292;-74
2023/07/10 08:21:18;;;;;;;;;;;21.20;99.90;;;;;;8337391;28;19937;-74
2023/07/10 08:25:23;;;;;;;;;;;21.20;99.90;;;;;;8334075;28;19924;-74
2023/07/10 08:29:29;;;;;;;;;;;21.30;99.90;;;;;;8338341;28;20307;-74
2023/07/10 08:33:31;;;;;;;;;;;21.30;99.90;;;;;;8331602;28;19924;-73
2023/07/10 08:37:37;;;;;;;;;;;21.30;99.90;;;;;;8332561;28;19925;-74
2023/07/10 08:41:39;;;;;;;;;;;21.30;99.90;;;;;;8326196;28;19925;-75
2023/07/10 08:45:42;;;;;;;;;;;21.40;99.90;;;;;;8352640;28;20024;-75
2023/07/10 08:49:53;;;;;;;;;;;21.40;99.90;;;;;;8358384;28;19964;-74
2023/07/10 08:54:16;;;;;;;;;;;21.60;99.90;;;;;;8340604;28;19925;-75
2023/07/10 08:58:21;;;;;;;;;;;21.70;99.90;;;;;;8319930;28;19968;-75
2023/07/10 09:02:32;;;;;;;;;;;21.80;99.90;;;;;;8331424;28;19925;-75
2023/07/10 09:07:01;;;;;;;;;;;21.80;99.90;;;;;;8336798;28;20350;-76
2023/07/10 09:11:07;;;;;;;;;;;21.80;99.90;;;;;;8339443;28;19975;-75
2023/07/10 09:15:13;;;;;;;;;;;21.80;99.90;;;;;;8345492;28;19983;-75
2023/07/10 09:19:18;;;;;;;;;;;21.90;99.90;;;;;;8338787;28;19936;-75
2023/07/10 09:23:22;;;;;;;;;;;21.90;99.90;;;;;;8334047;28;19972;-74
2023/07/10 09:27:25;;;;;;;;;;;22.00;99.90;;;;;;8333755;28;19929;-75
2023/07/10 09:31:47;;;;;;;;;;;22.10;99.90;;;;;;8349558;28;20254;-75
2023/07/10 09:35:56;;;;;;;;;;;22.20;99.90;;;;;;8338157;28;19925;-74
2023/07/10 09:40:20;;;;;;;;;;;22.20;99.90;;;;;;8334676;28;19928;-74
2023/07/10 09:44:22;;;;;;;;;;;22.30;99.90;;;;;;8330322;28;20316;-75
2023/07/10 09:48:34;;;;;;;;;;;22.30;99.90;;;;;;8351404;28;19975;-75
2023/07/10 09:52:55;;;;;;;;;;;22.20;99.90;;;;;;8335736;28;20032;-74
2023/07/10 09:57:02;;;;;;;;;;;22.20;99.90;;;;;;8332105;28;20386;-74
2023/07/10 10:01:05;;;;;;;;;;;22.10;99.90;;;;;;8348824;28;20015;-74
2023/07/10 10:05:11;;;;;;;;;;;22.20;99.90;;;;;;8347307;28;19987;-75
2023/07/10 10:09:23;;;;;;;;;;;22.30;99.90;;;;;;8338542;28;19925;-74
2023/07/10 10:13:28;;;;;;;;;;;22.40;99.90;;;;;;8337720;28;20080;-74
2023/07/10 10:17:31;;;;;;;;;;;22.50;99.90;;;;;;8330619;28;19933;-74
2023/07/10 10:21:34;;;;;;;;;;;22.50;99.90;;;;;;8342498;28;19979;-74
2023/07/10 10:25:39;;;;;;;;;;;22.40;99.90;;;;;;8326633;28;19929;-74
2023/07/10 10:29:55;;;;;;;;;;;22.40;99.90;;;;;;8336021;28;19979;-75
2023/07/10 10:34:10;;;;;;;;;;;22.40;99.90;;;;;;8334930;28;20003;-76
2023/07/10 10:38:35;;;;;;;;;;;22.40;99.90;;;;;;8361199;28;19925;-74
2023/07/10 10:42:41;;;;;;;;;;;22.40;99.90;;;;;;8331298;28;19951;-74
2023/07/10 10:46:49;;;;;;;;;;;22.50;99.90;;;;;;8329529;28;19932;-75
2023/07/10 10:51:06;;;;;;;;;;;22.70;99.90;;;;;;8330573;28;19932;-75
2023/07/10 10:55:09;;;;;;;;;;;22.80;99.90;;;;;;8337878;28;19978;-75
2023/07/10 10:59:24;;;;;;;;;;;22.90;99.90;;;;;;8351083;28;20012;-75
2023/07/10 11:03:31;;;;;;;;;;;23.10;99.90;;;;;;8333880;28;19937;-75
2023/07/10 11:07:33;;;;;;;;;;;23.20;99.90;;;;;;8331416;28;20618;-74
2023/07/10 11:11:36;;;;;;;;;;;23.30;99.90;;;;;;8332943;28;19972;-76
2023/07/10 11:15:39;;;;;;;;;;;23.30;99.90;;;;;;8339508;28;19925;-76
2023/07/10 11:19:41;;;;;;;;;;;23.40;99.90;;;;;;8331205;28;19932;-75
2023/07/10 11:23:44;;;;;;;;;;;23.50;99.90;;;;;;8349749;28;19957;-76
2023/07/10 11:27:47;;;;;;;;;;;23.50;99.90;;;;;;8348321;28;19992;-76
2023/07/10 11:31:55;;;;;;;;;;;23.50;99.90;;;;;;8348728;28;19929;-74
2023/07/10 11:36:17;;;;;;;;;;;23.40;99.90;;;;;;8352182;28;19975;-74
2023/07/10 11:40:23;;;;;;;;;;;23.20;99.90;;;;;;8347442;28;19925;-74
2023/07/10 11:44:28;;;;;;;;;;;23.20;99.90;;;;;;8330493;28;19929;-74
2023/07/10 11:48:38;;;;;;;;;;;23.20;99.90;;;;;;8335415;28;19936;-75
2023/07/10 11:52:41;;;;;;;;;;;23.30;99.90;;;;;;8334563;28;19925;-75
2023/07/10 11:57:01;;;;;;;;;;;23.40;99.90;;;;;;8334697;28;20028;-75
2023/07/10 12:01:14;;;;;;;;;;;23.30;99.90;;;;;;8330600;28;20307;-74
2023/07/10 12:05:20;;;;;;;;;;;23.30;99.90;;;;;;8344028;28;19929;-76
2023/07/10 12:09:21;;;;;;;;;;;23.30;99.90;;;;;;8338283;28;19929;-76
2023/07/10 12:13:30;;;;;;;;;;;23.50;99.90;;;;;;8332332;28;19936;-76
2023/07/10 12:17:32;;;;;;;;;;;23.60;99.90;;;;;;8349542;28;20631;-75
2023/07/10 12:21:36;;;;;;;;;;;23.70;99.90;;;;;;8339866;28;20269;-76
2023/07/10 12:25:38;;;;;;;;;;;23.70;99.90;;;;;;8341418;28;20288;-77
2023/07/10 12:29:50;;;;;;;;;;;23.70;99.90;;;;;;8349392;28;19935;-76
2023/07/10 12:33:52;;;;;;;;;;;23.80;99.90;;;;;;8341235;28;20327;-76
2023/07/10 12:37:58;;;;;;;;;;;23.80;99.90;;;;;;8357646;28;20428;-75
2023/07/10 12:42:00;;;;;;;;;;;23.90;99.90;;;;;;8341481;28;19931;-77
2023/07/10 12:46:22;;;;;;;;;;;24.00;99.90;;;;;;8335199;28;19932;-76
2023/07/10 12:50:39;;;;;;;;;;;24.00;99.90;;;;;;8317279;28;19925;-74
2023/07/10 12:54:42;;;;;;;;;;;24.00;99.90;;;;;;8341484;28;19932;-74
2023/07/10 12:58:46;;;;;;;;;;;24.00;99.90;;;;;;8339089;28;20300;-74
2023/07/10 13:02:50;;;;;;;;;;;24.00;99.90;;;;;;8326432;28;19933;-75
2023/07/10 13:06:59;;;;;;;;;;;24.10;99.90;;;;;;8339034;28;19929;-74
2023/07/10 13:11:22;;;;;;;;;;;24.10;99.90;;;;;;8335571;28;20412;-75
2023/07/10 13:15:40;;;;;;;;;;;24.20;99.90;;;;;;8361043;28;20406;-76
2023/07/10 13:19:42;;;;;;;;;;;24.30;99.90;;;;;;8345879;28;19925;-76
2023/07/10 13:23:52;;;;;;;;;;;24.30;99.90;;;;;;8352961;28;19935;-75
2023/07/10 13:27:54;;;;;;;;;;;24.40;99.90;;;;;;8351849;28;19932;-75
2023/07/10 13:31:56;;;;;;;;;;;24.50;99.90;;;;;;8335570;28;20233;-75
2023/07/10 13:35:58;;;;;;;;;;;24.50;99.90;;;;;;8336589;28;20012;-76
2023/07/10 13:40:00;;;;;;;;;;;24.60;99.90;;;;;;8337110;28;20237;-76
2023/07/10 13:44:01;;;;;;;;;;;24.50;99.90;;;;;;8336048;28;19948;-74
2023/07/10 13:48:08;;;;;;;;;;;24.50;99.90;;;;;;8353933;28;19935;-76
2023/07/10 13:52:15;;;;;;;;;;;24.60;99.90;;;;;;8338174;28;20446;-76
2023/07/10 13:56:22;;;;;;;;;;;24.70;99.90;;;;;;8336940;28;20329;-75
2023/07/10 14:00:23;;;;;;;;;;;24.60;99.90;;;;;;8335320;28;20294;-74
2023/07/10 14:04:26;;;;;;;;;;;24.50;99.90;;;;;;8340059;28;19976;-74
2023/07/10 14:08:29;;;;;;;;;;;24.50;99.90;;;;;;8351256;28;19925;-74
2023/07/10 14:12:31;;;;;;;;;;;24.50;99.90;;;;;;8336381;28;19929;-75
2023/07/10 14:16:36;;;;;;;;;;;24.50;99.90;;;;;;8347923;28;19933;-75
2023/07/10 14:20:37;;;;;;;;;;;24.50;99.90;;;;;;8345779;28;20453;-75
2023/07/10 14:24:39;;;;;;;;;;;24.50;99.90;;;;;;8332734;28;19955;-74
2023/07/10 14:28:41;;;;;;;;;;;24.50;99.90;;;;;;8354038;28;19925;-76
2023/07/10 14:32:43;;;;;;;;;;;24.70;99.90;;;;;;8338422;28;19932;-75
2023/07/10 14:36:45;;;;;;;;;;;24.80;99.90;;;;;;8335608;28;20363;-75
2023/07/10 14:40:47;;;;;;;;;;;25.00;99.90;;;;;;8332517;28;19925;-75
2023/07/10 14:44:49;;;;;;;;;;;25.00;99.90;;;;;;8346247;28;19979;-75
2023/07/10 14:48:50;;;;;;;;;;;25.00;99.90;;;;;;8348231;28;20571;-76
2023/07/10 14:52:52;;;;;;;;;;;24.90;99.90;;;;;;8356924;28;19928;-76
2023/07/10 14:56:56;;;;;;;;;;;24.80;99.90;;;;;;8332103;28;19929;-76
2023/07/10 15:00:58;;;;;;;;;;;24.90;99.90;;;;;;8351754;28;20415;-75
2023/07/10 15:05:00;;;;;;;;;;;25.20;99.90;;;;;;8349627;28;19936;-75
2023/07/10 15:09:02;;;;;;;;;;;25.30;99.90;;;;;;8334661;28;19945;-76
2023/07/10 15:13:13;;;;;;;;;;;25.40;99.90;;;;;;8336204;28;19939;-74
2023/07/10 15:17:17;;;;;;;;;;;25.40;99.90;;;;;;8324175;28;19936;-75
2023/07/10 15:21:20;;;;;;;;;;;25.50;99.90;;;;;;8334736;28;19952;-74
2023/07/10 15:25:23;;;;;;;;;;;25.60;99.90;;;;;;8343026;28;19929;-76
2023/07/10 15:29:25;;;;;;;;;;;25.60;99.90;;;;;;8331007;28;19933;-75
2023/07/10 15:33:31;;;;;;;;;;;25.70;99.90;;;;;;8352081;28;19932;-75
2023/07/10 15:37:33;;;;;;;;;;;25.80;99.90;;;;;;8352161;28;19933;-75
2023/07/10 15:41:37;;;;;;;;;;;25.80;99.90;;;;;;8349506;28;19933;-76
2023/07/10 15:45:39;;;;;;;;;;;25.70;99.90;;;;;;8330483;28;19929;-76
2023/07/10 15:49:40;;;;;;;;;;;25.70;99.90;;;;;;8337951;28;19925;-76
2023/07/10 15:53:42;;;;;;;;;;;25.70;99.90;;;;;;8344126;28;20348;-75
2023/07/10 15:57:44;;;;;;;;;;;25.80;99.90;;;;;;8360012;28;19925;-75
2023/07/10 16:01:47;;;;;;;;;;;26.10;99.90;;;;;;8342665;28;20680;-76
2023/07/10 16:05:49;;;;;;;;;;;26.50;99.90;;;;;;8357089;28;19959;-76
2023/07/10 16:09:51;;;;;;;;;;;26.90;99.90;;;;;;8349666;28;20632;-75
2023/07/10 16:13:53;;;;;;;;;;;27.20;99.90;;;;;;8338414;28;20296;-75
2023/07/10 16:17:56;;;;;;;;;;;27.50;99.90;;;;;;8336302;28;20012;-76
2023/07/10 16:21:57;;;;;;;;;;;27.60;99.90;;;;;;8336422;28;19932;-76
2023/07/10 16:25:59;;;;;;;;;;;27.70;99.90;;;;;;8339328;28;19929;-77
2023/07/10 16:30:01;;;;;;;;;;;27.90;99.90;;;;;;8345082;28;19925;-75
2023/07/10 16:34:03;;;;;;;;;;;28.10;99.90;;;;;;8340648;28;19971;-75
2023/07/10 16:38:04;;;;;;;;;;;28.20;99.90;;;;;;8340991;28;19925;-76
2023/07/10 16:42:13;;;;;;;;;;;28.20;99.90;;;;;;8350582;28;20002;-75
2023/07/10 16:46:15;;;;;;;;;;;28.30;99.90;;;;;;8338450;28;20383;-76
2023/07/10 16:50:18;;;;;;;;;;;28.40;99.90;;;;;;8339993;28;19959;-76
2023/07/10 16:54:20;;;;;;;;;;;28.50;99.90;;;;;;8330756;28;20211;-76
2023/07/10 16:58:23;;;;;;;;;;;28.60;99.90;;;;;;8345373;28;19936;-76
2023/07/10 17:02:25;;;;;;;;;;;28.70;99.90;;;;;;8337945;28;19940;-76
2023/07/10 17:06:28;;;;;;;;;;;28.60;99.90;;;;;;8334190;28;19932;-76
2023/07/10 17:10:29;;;;;;;;;;;28.30;99.90;;;;;;8336855;28;19971;-76
2023/07/10 17:14:31;;;;;;;;;;;28.10;99.90;;;;;;8354831;28;19932;-75
2023/07/10 17:18:33;;;;;;;;;;;27.80;99.90;;;;;;8338865;28;20631;-76
2023/07/10 17:22:35;;;;;;;;;;;27.60;99.90;;;;;;8336489;28;19975;-76
2023/07/10 17:26:36;;;;;;;;;;;27.40;99.90;;;;;;8333029;28;19933;-75
2023/07/10 17:30:38;;;;;;;;;;;27.30;99.90;;;;;;8337930;28;20360;-75
2023/07/10 17:34:40;;;;;;;;;;;27.10;99.90;;;;;;8335562;28;19983;-76
2023/07/10 17:38:42;;;;;;;;;;;27.00;99.90;;;;;;8337892;28;20398;-76
2023/07/10 17:42:44;;;;;;;;;;;27.00;99.90;;;;;;8339953;28;19928;-76
2023/07/10 17:46:46;;;;;;;;;;;26.90;99.90;;;;;;8350794;28;20028;-76
2023/07/10 17:50:49;;;;;;;;;;;26.80;99.90;;;;;;8339077;28;19925;-76
2023/07/10 17:54:51;;;;;;;;;;;26.80;99.90;;;;;;8340215;28;19983;-76
2023/07/10 17:58:54;;;;;;;;;;;26.70;99.90;;;;;;8349154;28;20292;-76
2023/07/10 18:02:57;;;;;;;;;;;26.50;99.90;;;;;;8334923;28;19958;-76
2023/07/10 18:06:59;;;;;;;;;;;26.40;99.90;;;;;;8337753;28;19931;-76
2023/07/10 18:11:03;;;;;;;;;;;26.40;99.90;;;;;;8337562;28;19925;-76
2023/07/10 18:15:12;;;;;;;;;;;26.30;99.90;;;;;;8335364;28;19979;-76
2023/07/10 18:19:15;;;;;;;;;;;26.20;99.90;;;;;;8342297;28;20343;-76
2023/07/10 18:23:22;;;;;;;;;;;26.20;99.90;;;;;;8340724;28;19932;-75
2023/07/10 18:27:24;;;;;;;;;;;26.10;99.90;;;;;;8340885;28;19931;-76
2023/07/10 18:31:27;;;;;;;;;;;26.10;99.90;;;;;;8351342;28;19933;-75
2023/07/10 18:35:29;;;;;;;;;;;26.10;99.90;;;;;;8334769;28;19925;-75
2023/07/10 18:39:30;;;;;;;;;;;26.00;99.90;;;;;;8352326;28;19925;-75
2023/07/10 18:43:32;;;;;;;;;;;26.00;99.90;;;;;;8334772;28;20406;-76
2023/07/10 18:47:34;;;;;;;;;;;26.00;99.90;;;;;;8338739;28;19924;-76
2023/07/10 18:51:35;;;;;;;;;;;25.90;99.90;;;;;;8354645;28;20428;-76
2023/07/10 18:55:37;;;;;;;;;;;25.80;99.90;;;;;;8352584;28;19944;-76
2023/07/10 18:59:39;;;;;;;;;;;25.70;99.90;;;;;;8338377;28;20675;-76
2023/07/10 19:18:55;;;;;;;;;;;25.40;99.90;;;;;;8333169;28;19942;-75
2023/07/10 19:22:57;;;;;;;;;;;25.20;99.90;;;;;;8351984;28;19971;-75
2023/07/10 19:26:59;;;;;;;;;;;25.10;99.90;;;;;;8338018;28;19929;-75
2023/07/10 19:31:02;;;;;;;;;;;25.00;99.90;;;;;;8345668;28;19928;-75
2023/07/10 19:35:04;;;;;;;;;;;24.90;99.90;;;;;;8333010;28;19925;-75
2023/07/10 19:39:25;;;;;;;;;;;24.80;99.90;;;;;;8331808;28;19936;-76
2023/07/10 19:43:27;;;;;;;;;;;24.60;99.90;;;;;;8333737;28;19939;-75
2023/07/10 19:47:29;;;;;;;;;;;24.50;99.90;;;;;;8337565;28;19932;-75
2023/07/10 19:51:31;;;;;;;;;;;24.50;99.90;;;;;;8334401;28;19932;-75
2023/07/10 19:55:32;;;;;;;;;;;24.40;99.90;;;;;;8329643;28;19925;-75
2023/07/10 19:59:37;;;;;;;;;;;24.20;99.90;;;;;;8333166;28;19932;-75
2023/07/10 20:03:39;;;;;;;;;;;24.20;99.90;;;;;;8333779;28;19925;-75
2023/07/10 20:07:41;;;;;;;;;;;24.10;99.90;;;;;;8339714;28;19943;-76
2023/07/10 20:11:43;;;;;;;;;;;24.00;99.90;;;;;;8336135;28;19925;-75
2023/07/10 20:15:46;;;;;;;;;;;23.90;99.90;;;;;;8333727;28;19933;-75
2023/07/10 20:19:47;;;;;;;;;;;23.80;99.90;;;;;;8316543;28;20371;-75
2023/07/10 20:23:52;;;;;;;;;;;23.70;99.90;;;;;;8350394;28;19925;-75
2023/07/10 20:27:54;;;;;;;;;;;23.50;99.90;;;;;;8344408;28;19925;-75
2023/07/10 20:31:56;;;;;;;;;;;23.50;99.90;;;;;;8347287;28;19932;-75
2023/07/10 20:36:01;;;;;;;;;;;23.40;99.90;;;;;;8338429;28;19924;-74
2023/07/10 20:40:07;;;;;;;;;;;23.40;99.90;;;;;;8331252;28;19929;-74
2023/07/10 20:44:15;;;;;;;;;;;23.30;99.90;;;;;;8340457;28;20301;-75
2023/07/10 20:48:21;;;;;;;;;;;23.30;99.90;;;;;;8330437;28;20292;-75
2023/07/10 20:52:22;;;;;;;;;;;23.20;99.90;;;;;;8319917;28;19924;-74
2023/07/10 20:56:25;;;;;;;;;;;23.20;99.90;;;;;;8351860;28;20430;-75
2023/07/10 21:00:27;;;;;;;;;;;23.10;99.90;;;;;;8349660;28;19925;-75
2023/07/10 21:04:29;;;;;;;;;;;23.00;99.90;;;;;;8368126;28;20421;-75
2023/07/10 21:08:34;;;;;;;;;;;23.00;99.90;;;;;;8377514;28;19925;-75
2023/07/10 21:12:35;;;;;;;;;;;22.90;99.90;;;;;;8367982;28;20386;-75
2023/07/10 21:16:37;;;;;;;;;;;22.80;99.90;;;;;;8369091;28;19928;-74
2023/07/10 21:20:39;;;;;;;;;;;22.80;99.90;;;;;;8358921;28;19924;-75
2023/07/10 21:24:40;;;;;;;;;;;22.70;99.90;;;;;;8356011;28;20335;-75
2023/07/10 21:28:44;;;;;;;;;;;22.60;99.90;;;;;;8357652;28;19925;-75
2023/07/10 21:32:46;;;;;;;;;;;22.50;99.90;;;;;;8372715;28;19925;-75
2023/07/10 21:36:48;;;;;;;;;;;22.40;99.90;;;;;;8369706;28;19933;-75
2023/07/10 21:40:50;;;;;;;;;;;22.20;99.90;;;;;;8369871;28;20384;-75
2023/07/10 21:44:53;;;;;;;;;;;22.20;99.90;;;;;;8376838;28;19978;-75
2023/07/10 21:48:55;;;;;;;;;;;22.10;99.90;;;;;;8374383;28;19929;-75
2023/07/10 21:52:57;;;;;;;;;;;21.90;99.90;;;;;;8366059;28;20280;-75
2023/07/10 21:56:59;;;;;;;;;;;21.80;99.90;;;;;;8377128;28;19924;-74
2023/07/10 22:01:01;;;;;;;;;;;21.70;99.90;;;;;;8366222;28;19925;-75
2023/07/10 22:05:10;;;;;;;;;;;21.70;99.90;;;;;;8354501;28;19933;-75
2023/07/10 22:09:12;;;;;;;;;;;21.60;99.90;;;;;;8359866;28;19931;-74
2023/07/10 22:13:15;;;;;;;;;;;21.50;99.90;;;;;;8367822;28;20269;-75
2023/07/10 22:17:21;;;;;;;;;;;21.40;99.90;;;;;;8382612;28;19929;-75
2023/07/10 22:21:24;;;;;;;;;;;21.30;99.90;;;;;;8361598;28;19972;-75
2023/07/10 22:25:26;;;;;;;;;;;21.30;99.90;;;;;;8370323;28;19986;-75
2023/07/10 22:29:29;;;;;;;;;;;21.30;99.90;;;;;;8373181;28;20397;-75
2023/07/10 22:33:33;;;;;;;;;;;21.10;99.90;;;;;;8369058;28;19924;-75
2023/07/10 22:37:34;;;;;;;;;;;21.00;99.90;;;;;;8390581;28;19932;-75
2023/07/10 22:41:36;;;;;;;;;;;20.90;99.90;;;;;;8366260;28;19928;-75
2023/07/10 22:45:38;;;;;;;;;;;20.80;99.90;;;;;;8375195;28;19928;-75
2023/07/10 22:49:40;;;;;;;;;;;20.70;99.90;;;;;;8375775;28;20398;-75
2023/07/10 22:53:42;;;;;;;;;;;20.70;99.90;;;;;;8371055;28;19988;-75
2023/07/10 22:57:47;;;;;;;;;;;20.70;99.90;;;;;;8353870;28;19924;-75
2023/07/10 23:01:49;;;;;;;;;;;20.70;99.90;;;;;;8335778;28;19966;-75
2023/07/10 23:05:51;;;;;;;;;;;20.70;99.90;;;;;;8348025;28;19929;-74
2023/07/10 23:09:53;;;;;;;;;;;20.60;99.90;;;;;;8372949;28;19924;-75
2023/07/10 23:13:54;;;;;;;;;;;20.60;99.90;;;;;;8348878;28;19931;-74
2023/07/10 23:17:56;;;;;;;;;;;20.60;99.90;;;;;;8366471;28;20375;-74
2023/07/10 23:21:58;;;;;;;;;;;20.50;99.90;;;;;;8362675;28;19964;-74
2023/07/10 23:26:00;;;;;;;;;;;20.40;99.90;;;;;;8357194;28;19978;-75
2023/07/10 23:30:02;;;;;;;;;;;20.40;99.90;;;;;;8383072;28;19947;-74
2023/07/10 23:34:03;;;;;;;;;;;20.40;99.90;;;;;;8374264;28;19929;-74
2023/07/10 23:38:05;;;;;;;;;;;20.40;99.90;;;;;;8375417;28;19973;-75
2023/07/10 23:42:07;;;;;;;;;;;20.30;99.90;;;;;;8385403;28;19924;-74
2023/07/10 23:46:09;;;;;;;;;;;20.30;99.90;;;;;;8363604;28;20008;-74
2023/07/10 23:50:13;;;;;;;;;;;20.30;99.90;;;;;;8367936;28;19986;-74
2023/07/10 23:54:14;;;;;;;;;;;20.30;99.90;;;;;;8354980;28;20330;-75
2023/07/10 23:58:16;;;;;;;;;;;20.20;99.90;;;;;;8380571;28;19924;-75
